Pagrindinis puslapis
METAR-TAF:

METAR-TAF

Oro uostai :

Vysbadenas, Vokietija

platuma: 50-03N, ilguma: 008-20E, Aukštis: 140 m

Dabartinis oras

Ataskaita buvo paskelbta 44 minutes, ne 08:56 UTC
Vėjas 5 kt iš Rytų/Pietryčių
Temperatūra 13°C
Drėgmė 51%
Slėgis 1030 hPa
Matomumas 10 km arba daugiau
Giedras dangus

METAR: ETOU 200856Z AUTO 12005KT 9999 CLR 13/03 A3041 RMK AO2 SLP301 T01330028 50005

Laikas: 11:40 (09:40 UTC)

Prognozė

Ataskaita buvo paskelbta 6 valandos ir 34 minutes, ne 03:06 UTC
Prognozė galioja nuo 20 metu 03 UTC su 21 metu 09 UTC
Vėjas 6 kt nuo kintamojo kryptimis
Matomumas 10 km arba daugiau
Mažai debesys ne aukštis 5000 ft
Tapsmas
nuo 20 metu 11 UTC su 20 metu 12 UTC
Vėjas 6 kt nuo kintamojo kryptimis
Matomumas 10 km arba daugiau
Giedras dangus

TAF: ETOU 200306Z 2003/2109 VRB06KT 9999 FEW050 QNH3036INS BECMG 2011/2012 VRB06KT 9999 SKC QNH3021INS TX17/2015Z TN06/2005Z

Orai ataskaitas ir orų prognozės (METAR, TAF).

turimą stotys yra geltonos ir raudonos taškus žemėlapyje.

Perkelti pele per norėdami pamatyti stoties vardą.

Tada spustelėkite, norėdami matyti oro stebėjimo ir prognozės.

Norėdami pakeisti žemėlapį: spustelėkite ant žalios mygtukų su juodo kryžiaus žemyn,; žalią mygtuką su brūkšneliu, jei norite nutolinti; arba žalių rodyklių gretimoms žemėlapius.


METAR-TAF: